sensor_id;sensor_type;location;lat;lon;timestamp;temperature;humidity
7174;DHT22;3628;48.654;8.932;2023-02-18T00:01:14;11.20;99.90
7174;DHT22;3628;48.654;8.932;2023-02-18T00:03:40;11.20;99.90
7174;DHT22;3628;48.654;8.932;2023-02-18T00:06:18;11.20;99.90
7174;DHT22;3628;48.654;8.932;2023-02-18T00:08:45;11.20;99.90
7174;DHT22;3628;48.654;8.932;2023-02-18T00:11:11;11.20;99.90
7174;DHT22;3628;48.654;8.932;2023-02-18T00:13:37;11.20;99.90
7174;DHT22;3628;48.654;8.932;2023-02-18T00:16:06;11.20;99.90
7174;DHT22;3628;48.654;8.932;2023-02-18T00:18:32;11.20;99.90
7174;DHT22;3628;48.654;8.932;2023-02-18T00:20:58;11.20;99.90
7174;DHT22;3628;48.654;8.932;2023-02-18T00:23:24;11.20;99.90
7174;DHT22;3628;48.654;8.932;2023-02-18T00:25:58;11.20;99.90
7174;DHT22;3628;48.654;8.932;2023-02-18T00:28:24;11.20;99.90
7174;DHT22;3628;48.654;8.932;2023-02-18T00:30:49;11.20;99.90
7174;DHT22;3628;48.654;8.932;2023-02-18T00:33:15;11.20;99.90
7174;DHT22;3628;48.654;8.932;2023-02-18T00:35:40;11.20;99.90
7174;DHT22;3628;48.654;8.932;2023-02-18T00:38:07;11.20;99.90
7174;DHT22;3628;48.654;8.932;2023-02-18T00:40:35;11.20;99.90
7174;DHT22;3628;48.654;8.932;2023-02-18T00:43:01;11.20;99.90
7174;DHT22;3628;48.654;8.932;2023-02-18T00:45:27;11.20;99.90
7174;DHT22;3628;48.654;8.932;2023-02-18T00:47:52;11.30;99.90
7174;DHT22;3628;48.654;8.932;2023-02-18T00:50:18;11.30;99.90
7174;DHT22;3628;48.654;8.932;2023-02-18T00:52:43;11.30;99.90
7174;DHT22;3628;48.654;8.932;2023-02-18T00:55:09;11.30;99.90
7174;DHT22;3628;48.654;8.932;2023-02-18T00:57:34;11.20;99.90
7174;DHT22;3628;48.654;8.932;2023-02-18T01:00:00;11.30;99.90
7174;DHT22;3628;48.654;8.932;2023-02-18T01:02:25;11.30;99.90
7174;DHT22;3628;48.654;8.932;2023-02-18T01:04:51;11.20;99.90
7174;DHT22;3628;48.654;8.932;2023-02-18T01:07:16;11.30;99.90
7174;DHT22;3628;48.654;8.932;2023-02-18T01:09:42;11.20;99.90
7174;DHT22;3628;48.654;8.932;2023-02-18T01:12:07;11.20;99.90
7174;DHT22;3628;48.654;8.932;2023-02-18T01:14:33;11.20;99.90
7174;DHT22;3628;48.654;8.932;2023-02-18T01:16:58;11.20;99.90
7174;DHT22;3628;48.654;8.932;2023-02-18T01:19:24;11.20;99.90
7174;DHT22;3628;48.654;8.932;2023-02-18T01:21:50;11.20;99.90
7174;DHT22;3628;48.654;8.932;2023-02-18T01:24:15;11.20;99.90
7174;DHT22;3628;48.654;8.932;2023-02-18T01:26:40;11.20;99.90
7174;DHT22;3628;48.654;8.932;2023-02-18T01:29:06;11.20;99.90
7174;DHT22;3628;48.654;8.932;2023-02-18T01:31:31;11.20;99.90
7174;DHT22;3628;48.654;8.932;2023-02-18T01:33:57;11.20;99.90
7174;DHT22;3628;48.654;8.932;2023-02-18T01:36:22;11.30;99.90
7174;DHT22;3628;48.654;8.932;2023-02-18T01:38:48;11.30;99.90
7174;DHT22;3628;48.654;8.932;2023-02-18T01:41:14;11.30;99.90
7174;DHT22;3628;48.654;8.932;2023-02-18T01:43:39;11.30;99.90
7174;DHT22;3628;48.654;8.932;2023-02-18T01:46:15;11.30;99.90
7174;DHT22;3628;48.654;8.932;2023-02-18T01:48:54;11.30;99.90
7174;DHT22;3628;48.654;8.932;2023-02-18T01:51:30;11.30;99.90
7174;DHT22;3628;48.654;8.932;2023-02-18T01:54:02;11.30;99.90
7174;DHT22;3628;48.654;8.932;2023-02-18T01:56:35;11.30;99.90
7174;DHT22;3628;48.654;8.932;2023-02-18T01:59:20;11.30;99.90
7174;DHT22;3628;48.654;8.932;2023-02-18T02:01:47;11.30;99.90
7174;DHT22;3628;48.654;8.932;2023-02-18T02:04:13;11.30;99.90
7174;DHT22;3628;48.654;8.932;2023-02-18T02:06:39;11.20;99.90
7174;DHT22;3628;48.654;8.932;2023-02-18T02:09:07;11.20;99.90
7174;DHT22;3628;48.654;8.932;2023-02-18T02:11:57;11.20;99.90
7174;DHT22;3628;48.654;8.932;2023-02-18T02:23:11;10.90;99.90
7174;DHT22;3628;48.654;8.932;2023-02-18T02:32:02;10.90;99.90
7174;DHT22;3628;48.654;8.932;2023-02-18T02:34:54;10.90;99.90
7174;DHT22;3628;48.654;8.932;2023-02-18T02:37:44;10.90;99.90
7174;DHT22;3628;48.654;8.932;2023-02-18T02:40:34;10.90;99.90
7174;DHT22;3628;48.654;8.932;2023-02-18T02:43:14;10.90;99.90
7174;DHT22;3628;48.654;8.932;2023-02-18T02:54:17;10.90;99.90
7174;DHT22;3628;48.654;8.932;2023-02-18T02:56:43;10.80;99.90
7174;DHT22;3628;48.654;8.932;2023-02-18T02:59:13;10.80;99.90
7174;DHT22;3628;48.654;8.932;2023-02-18T03:07:56;10.60;99.90
7174;DHT22;3628;48.654;8.932;2023-02-18T03:10:42;10.60;99.90
7174;DHT22;3628;48.654;8.932;2023-02-18T03:15:55;10.60;99.90
7174;DHT22;3628;48.654;8.932;2023-02-18T03:18:42;10.60;99.90
7174;DHT22;3628;48.654;8.932;2023-02-18T03:21:14;10.70;99.90
7174;DHT22;3628;48.654;8.932;2023-02-18T03:23:48;10.70;99.90
7174;DHT22;3628;48.654;8.932;2023-02-18T03:26:18;10.70;99.90
7174;DHT22;3628;48.654;8.932;2023-02-18T03:28:46;10.70;99.90
7174;DHT22;3628;48.654;8.932;2023-02-18T03:31:17;10.70;99.90
7174;DHT22;3628;48.654;8.932;2023-02-18T03:34:06;10.60;99.90
7174;DHT22;3628;48.654;8.932;2023-02-18T03:36:34;10.50;99.90
7174;DHT22;3628;48.654;8.932;2023-02-18T03:39:08;10.40;99.90
7174;DHT22;3628;48.654;8.932;2023-02-18T03:41:34;10.40;99.90
7174;DHT22;3628;48.654;8.932;2023-02-18T03:44:03;10.30;99.90
7174;DHT22;3628;48.654;8.932;2023-02-18T03:46:30;10.30;99.90
7174;DHT22;3628;48.654;8.932;2023-02-18T03:48:56;10.20;99.90
7174;DHT22;3628;48.654;8.932;2023-02-18T03:51:22;10.10;99.90
7174;DHT22;3628;48.654;8.932;2023-02-18T03:53:47;10.10;99.90
7174;DHT22;3628;48.654;8.932;2023-02-18T03:56:13;10.10;99.90
7174;DHT22;3628;48.654;8.932;2023-02-18T03:58:39;10.00;99.90
7174;DHT22;3628;48.654;8.932;2023-02-18T04:01:05;9.90;99.90
7174;DHT22;3628;48.654;8.932;2023-02-18T04:03:30;9.80;99.90
7174;DHT22;3628;48.654;8.932;2023-02-18T04:05:56;9.80;99.90
7174;DHT22;3628;48.654;8.932;2023-02-18T04:08:22;9.70;99.90
7174;DHT22;3628;48.654;8.932;2023-02-18T04:10:47;9.70;99.90
7174;DHT22;3628;48.654;8.932;2023-02-18T04:13:13;9.70;99.90
7174;DHT22;3628;48.654;8.932;2023-02-18T04:15:39;9.60;99.90
7174;DHT22;3628;48.654;8.932;2023-02-18T04:18:04;9.60;99.90
7174;DHT22;3628;48.654;8.932;2023-02-18T04:20:30;9.60;99.90
7174;DHT22;3628;48.654;8.932;2023-02-18T04:22:56;9.50;99.90
7174;DHT22;3628;48.654;8.932;2023-02-18T04:25:21;9.50;99.90
7174;DHT22;3628;48.654;8.932;2023-02-18T04:27:47;9.50;99.90
7174;DHT22;3628;48.654;8.932;2023-02-18T04:30:12;9.40;99.90
7174;DHT22;3628;48.654;8.932;2023-02-18T04:32:38;9.40;99.90
7174;DHT22;3628;48.654;8.932;2023-02-18T04:35:04;9.40;99.90
7174;DHT22;3628;48.654;8.932;2023-02-18T04:37:30;9.30;99.90
7174;DHT22;3628;48.654;8.932;2023-02-18T04:39:55;9.30;99.90
7174;DHT22;3628;48.654;8.932;2023-02-18T04:42:21;9.30;99.90
7174;DHT22;3628;48.654;8.932;2023-02-18T04:44:47;9.30;99.90
7174;DHT22;3628;48.654;8.932;2023-02-18T04:47:12;9.30;99.90
7174;DHT22;3628;48.654;8.932;2023-02-18T04:49:38;9.30;99.90
7174;DHT22;3628;48.654;8.932;2023-02-18T04:52:03;9.30;99.90
7174;DHT22;3628;48.654;8.932;2023-02-18T04:54:29;9.30;99.90
7174;DHT22;3628;48.654;8.932;2023-02-18T04:56:54;9.20;99.90
7174;DHT22;3628;48.654;8.932;2023-02-18T04:59:20;9.20;99.90
7174;DHT22;3628;48.654;8.932;2023-02-18T05:01:46;9.20;99.90
7174;DHT22;3628;48.654;8.932;2023-02-18T05:04:11;9.20;99.90
7174;DHT22;3628;48.654;8.932;2023-02-18T05:06:37;9.20;99.90
7174;DHT22;3628;48.654;8.932;2023-02-18T05:09:05;9.30;99.90
7174;DHT22;3628;48.654;8.932;2023-02-18T05:11:31;9.40;99.90
7174;DHT22;3628;48.654;8.932;2023-02-18T05:13:56;9.40;99.90
7174;DHT22;3628;48.654;8.932;2023-02-18T05:16:22;9.50;99.90
7174;DHT22;3628;48.654;8.932;2023-02-18T05:18:47;9.60;99.90
7174;DHT22;3628;48.654;8.932;2023-02-18T05:21:13;9.60;99.90
7174;DHT22;3628;48.654;8.932;2023-02-18T05:23:38;9.70;99.90
7174;DHT22;3628;48.654;8.932;2023-02-18T05:26:04;9.80;99.90
7174;DHT22;3628;48.654;8.932;2023-02-18T05:28:29;9.80;99.90
7174;DHT22;3628;48.654;8.932;2023-02-18T05:30:55;9.80;99.90
7174;DHT22;3628;48.654;8.932;2023-02-18T05:33:20;9.90;99.90
7174;DHT22;3628;48.654;8.932;2023-02-18T05:35:47;9.90;99.90
7174;DHT22;3628;48.654;8.932;2023-02-18T05:38:13;10.00;99.90
7174;DHT22;3628;48.654;8.932;2023-02-18T05:40:38;10.00;99.90
7174;DHT22;3628;48.654;8.932;2023-02-18T05:43:04;10.00;99.90
7174;DHT22;3628;48.654;8.932;2023-02-18T05:45:29;10.00;99.90
7174;DHT22;3628;48.654;8.932;2023-02-18T05:47:55;10.00;99.90
7174;DHT22;3628;48.654;8.932;2023-02-18T05:50:20;10.00;99.90
7174;DHT22;3628;48.654;8.932;2023-02-18T05:52:46;10.00;99.90
7174;DHT22;3628;48.654;8.932;2023-02-18T05:55:11;10.00;99.90
7174;DHT22;3628;48.654;8.932;2023-02-18T05:57:37;10.00;99.90
7174;DHT22;3628;48.654;8.932;2023-02-18T06:00:04;10.00;99.90
7174;DHT22;3628;48.654;8.932;2023-02-18T06:02:30;10.00;99.90
7174;DHT22;3628;48.654;8.932;2023-02-18T06:04:56;9.90;99.90
7174;DHT22;3628;48.654;8.932;2023-02-18T06:07:21;9.80;99.90
7174;DHT22;3628;48.654;8.932;2023-02-18T06:09:47;9.80;99.90
7174;DHT22;3628;48.654;8.932;2023-02-18T06:12:13;9.80;99.90
7174;DHT22;3628;48.654;8.932;2023-02-18T06:14:38;9.70;99.90
7174;DHT22;3628;48.654;8.932;2023-02-18T06:17:07;9.70;99.90
7174;DHT22;3628;48.654;8.932;2023-02-18T06:19:33;9.70;99.90
7174;DHT22;3628;48.654;8.932;2023-02-18T06:21:59;9.70;99.90
7174;DHT22;3628;48.654;8.932;2023-02-18T06:24:24;9.70;99.90
7174;DHT22;3628;48.654;8.932;2023-02-18T06:26:50;9.70;99.90
7174;DHT22;3628;48.654;8.932;2023-02-18T06:29:15;9.70;99.90
7174;DHT22;3628;48.654;8.932;2023-02-18T06:31:41;9.70;99.90
7174;DHT22;3628;48.654;8.932;2023-02-18T06:34:06;9.70;99.90
7174;DHT22;3628;48.654;8.932;2023-02-18T06:36:32;9.60;99.90
7174;DHT22;3628;48.654;8.932;2023-02-18T06:38:57;9.60;99.90
7174;DHT22;3628;48.654;8.932;2023-02-18T06:41:24;9.60;99.90
7174;DHT22;3628;48.654;8.932;2023-02-18T06:43:50;9.60;99.90
7174;DHT22;3628;48.654;8.932;2023-02-18T06:46:15;9.70;99.90
7174;DHT22;3628;48.654;8.932;2023-02-18T06:48:41;9.80;99.90
7174;DHT22;3628;48.654;8.932;2023-02-18T06:51:07;10.00;99.90
7174;DHT22;3628;48.654;8.932;2023-02-18T06:53:32;10.00;99.90
7174;DHT22;3628;48.654;8.932;2023-02-18T06:55:58;10.10;99.90
7174;DHT22;3628;48.654;8.932;2023-02-18T06:58:23;10.20;99.90
7174;DHT22;3628;48.654;8.932;2023-02-18T07:00:49;10.20;99.90
7174;DHT22;3628;48.654;8.932;2023-02-18T07:03:15;10.30;99.90
7174;DHT22;3628;48.654;8.932;2023-02-18T07:05:41;10.40;99.90
7174;DHT22;3628;48.654;8.932;2023-02-18T07:08:06;10.40;99.90
7174;DHT22;3628;48.654;8.932;2023-02-18T07:10:32;10.50;99.90
7174;DHT22;3628;48.654;8.932;2023-02-18T07:12:58;10.50;99.90
7174;DHT22;3628;48.654;8.932;2023-02-18T07:15:23;10.60;99.90
7174;DHT22;3628;48.654;8.932;2023-02-18T07:17:51;10.70;99.90
7174;DHT22;3628;48.654;8.932;2023-02-18T07:20:18;10.80;99.90
7174;DHT22;3628;48.654;8.932;2023-02-18T07:22:44;10.80;99.90
7174;DHT22;3628;48.654;8.932;2023-02-18T07:25:09;10.90;99.90
7174;DHT22;3628;48.654;8.932;2023-02-18T07:27:35;10.90;99.90
7174;DHT22;3628;48.654;8.932;2023-02-18T07:30:01;11.00;99.90
7174;DHT22;3628;48.654;8.932;2023-02-18T07:32:26;11.10;99.90
7174;DHT22;3628;48.654;8.932;2023-02-18T07:34:52;11.10;99.90
7174;DHT22;3628;48.654;8.932;2023-02-18T07:37:18;11.10;99.90
7174;DHT22;3628;48.654;8.932;2023-02-18T07:39:44;11.10;99.90
7174;DHT22;3628;48.654;8.932;2023-02-18T07:42:10;11.20;99.90
7174;DHT22;3628;48.654;8.932;2023-02-18T07:44:37;11.20;99.90
7174;DHT22;3628;48.654;8.932;2023-02-18T07:47:04;11.30;99.90
7174;DHT22;3628;48.654;8.932;2023-02-18T07:49:31;11.30;99.90
7174;DHT22;3628;48.654;8.932;2023-02-18T07:51:56;11.40;99.90
7174;DHT22;3628;48.654;8.932;2023-02-18T07:54:22;11.40;99.90
7174;DHT22;3628;48.654;8.932;2023-02-18T07:56:48;11.50;99.90
7174;DHT22;3628;48.654;8.932;2023-02-18T07:59:14;11.50;99.90
7174;DHT22;3628;48.654;8.932;2023-02-18T08:01:40;11.50;99.90
7174;DHT22;3628;48.654;8.932;2023-02-18T08:04:06;11.50;99.90
7174;DHT22;3628;48.654;8.932;2023-02-18T08:06:38;11.50;99.90
7174;DHT22;3628;48.654;8.932;2023-02-18T08:09:05;11.50;99.90
7174;DHT22;3628;48.654;8.932;2023-02-18T08:11:32;11.50;99.90
7174;DHT22;3628;48.654;8.932;2023-02-18T08:13:58;11.50;99.90
7174;DHT22;3628;48.654;8.932;2023-02-18T08:16:23;11.50;99.90
7174;DHT22;3628;48.654;8.932;2023-02-18T08:18:50;11.50;99.90
7174;DHT22;3628;48.654;8.932;2023-02-18T08:21:17;11.50;99.90
7174;DHT22;3628;48.654;8.932;2023-02-18T08:23:44;11.50;99.90
7174;DHT22;3628;48.654;8.932;2023-02-18T08:26:10;11.50;99.90
7174;DHT22;3628;48.654;8.932;2023-02-18T08:28:35;11.50;99.90
7174;DHT22;3628;48.654;8.932;2023-02-18T08:31:01;11.50;99.90
7174;DHT22;3628;48.654;8.932;2023-02-18T08:33:27;11.60;99.90
7174;DHT22;3628;48.654;8.932;2023-02-18T08:35:53;11.60;99.90
7174;DHT22;3628;48.654;8.932;2023-02-18T08:38:20;11.60;99.90
7174;DHT22;3628;48.654;8.932;2023-02-18T08:40:46;11.70;99.90
7174;DHT22;3628;48.654;8.932;2023-02-18T08:43:12;11.70;99.90
7174;DHT22;3628;48.654;8.932;2023-02-18T08:45:39;11.70;99.90
7174;DHT22;3628;48.654;8.932;2023-02-18T08:48:06;11.70;99.90
7174;DHT22;3628;48.654;8.932;2023-02-18T08:50:33;11.70;99.90
7174;DHT22;3628;48.654;8.932;2023-02-18T08:52:59;11.70;99.90
7174;DHT22;3628;48.654;8.932;2023-02-18T08:55:31;11.80;99.90
7174;DHT22;3628;48.654;8.932;2023-02-18T08:57:57;11.80;99.90
7174;DHT22;3628;48.654;8.932;2023-02-18T09:00:23;11.80;99.90
7174;DHT22;3628;48.654;8.932;2023-02-18T09:02:48;11.90;99.90
7174;DHT22;3628;48.654;8.932;2023-02-18T09:05:15;11.90;99.90
7174;DHT22;3628;48.654;8.932;2023-02-18T09:07:40;11.90;99.90
7174;DHT22;3628;48.654;8.932;2023-02-18T09:10:07;11.80;99.90
7174;DHT22;3628;48.654;8.932;2023-02-18T09:12:33;11.80;99.90
7174;DHT22;3628;48.654;8.932;2023-02-18T09:14:59;11.90;99.90
7174;DHT22;3628;48.654;8.932;2023-02-18T09:17:25;11.90;99.90
7174;DHT22;3628;48.654;8.932;2023-02-18T09:19:50;11.90;99.90
7174;DHT22;3628;48.654;8.932;2023-02-18T09:22:16;12.00;99.90
7174;DHT22;3628;48.654;8.932;2023-02-18T09:24:42;12.00;99.90
7174;DHT22;3628;48.654;8.932;2023-02-18T09:27:07;12.10;99.90
7174;DHT22;3628;48.654;8.932;2023-02-18T09:29:33;12.10;99.90
7174;DHT22;3628;48.654;8.932;2023-02-18T09:32:02;12.20;99.90
7174;DHT22;3628;48.654;8.932;2023-02-18T09:34:28;12.20;99.90
7174;DHT22;3628;48.654;8.932;2023-02-18T09:36:53;12.30;99.90
7174;DHT22;3628;48.654;8.932;2023-02-18T09:39:19;12.30;99.90
7174;DHT22;3628;48.654;8.932;2023-02-18T09:44:24;12.40;99.90
7174;DHT22;3628;48.654;8.932;2023-02-18T09:47:22;12.40;99.90
7174;DHT22;3628;48.654;8.932;2023-02-18T09:49:53;12.40;99.90
7174;DHT22;3628;48.654;8.932;2023-02-18T09:52:27;12.50;99.90
7174;DHT22;3628;48.654;8.932;2023-02-18T09:54:54;12.50;99.90
7174;DHT22;3628;48.654;8.932;2023-02-18T09:57:37;12.50;99.90
7174;DHT22;3628;48.654;8.932;2023-02-18T10:00:09;12.50;99.90
7174;DHT22;3628;48.654;8.932;2023-02-18T10:02:38;12.40;99.90
7174;DHT22;3628;48.654;8.932;2023-02-18T10:05:04;12.40;99.90
7174;DHT22;3628;48.654;8.932;2023-02-18T10:07:31;12.40;99.90
7174;DHT22;3628;48.654;8.932;2023-02-18T10:10:02;12.50;99.90
7174;DHT22;3628;48.654;8.932;2023-02-18T10:12:29;12.50;99.90
7174;DHT22;3628;48.654;8.932;2023-02-18T10:14:59;12.50;99.90
7174;DHT22;3628;48.654;8.932;2023-02-18T10:17:27;12.70;99.90
7174;DHT22;3628;48.654;8.932;2023-02-18T10:19:55;12.70;99.90
7174;DHT22;3628;48.654;8.932;2023-02-18T10:22:22;12.60;99.90
7174;DHT22;3628;48.654;8.932;2023-02-18T10:24:54;12.60;99.90
7174;DHT22;3628;48.654;8.932;2023-02-18T10:27:25;12.60;99.90
7174;DHT22;3628;48.654;8.932;2023-02-18T10:29:51;12.50;99.90
7174;DHT22;3628;48.654;8.932;2023-02-18T10:32:26;12.60;99.90
7174;DHT22;3628;48.654;8.932;2023-02-18T10:35:02;12.50;99.90
7174;DHT22;3628;48.654;8.932;2023-02-18T10:43:00;12.50;99.90
7174;DHT22;3628;48.654;8.932;2023-02-18T10:45:42;12.50;99.90
7174;DHT22;3628;48.654;8.932;2023-02-18T10:50:39;12.60;99.90
7174;DHT22;3628;48.654;8.932;2023-02-18T10:53:30;12.70;99.90
7174;DHT22;3628;48.654;8.932;2023-02-18T10:55:58;12.70;99.90
7174;DHT22;3628;48.654;8.932;2023-02-18T10:58:35;12.70;99.90
7174;DHT22;3628;48.654;8.932;2023-02-18T11:01:13;12.60;99.90
7174;DHT22;3628;48.654;8.932;2023-02-18T11:03:45;12.60;99.90
7174;DHT22;3628;48.654;8.932;2023-02-18T11:06:31;12.60;99.90
7174;DHT22;3628;48.654;8.932;2023-02-18T11:08:59;12.70;99.90
7174;DHT22;3628;48.654;8.932;2023-02-18T11:11:29;12.70;99.90
7174;DHT22;3628;48.654;8.932;2023-02-18T11:13:58;12.70;99.90
7174;DHT22;3628;48.654;8.932;2023-02-18T11:16:37;12.70;99.90
7174;DHT22;3628;48.654;8.932;2023-02-18T11:19:03;12.80;99.90
7174;DHT22;3628;48.654;8.932;2023-02-18T11:21:36;12.80;99.90
7174;DHT22;3628;48.654;8.932;2023-02-18T11:24:15;12.80;99.90
7174;DHT22;3628;48.654;8.932;2023-02-18T11:26:41;12.90;99.90
7174;DHT22;3628;48.654;8.932;2023-02-18T11:29:20;12.90;99.90
7174;DHT22;3628;48.654;8.932;2023-02-18T11:31:50;12.90;99.90
7174;DHT22;3628;48.654;8.932;2023-02-18T11:34:22;12.90;99.90
7174;DHT22;3628;48.654;8.932;2023-02-18T11:36:50;12.90;99.90
7174;DHT22;3628;48.654;8.932;2023-02-18T11:39:20;13.00;99.90
7174;DHT22;3628;48.654;8.932;2023-02-18T11:41:52;13.00;99.90
7174;DHT22;3628;48.654;8.932;2023-02-18T11:44:31;13.00;99.90
7174;DHT22;3628;48.654;8.932;2023-02-18T11:49:25;13.20;99.90
7174;DHT22;3628;48.654;8.932;2023-02-18T11:51:51;13.20;99.90
7174;DHT22;3628;48.654;8.932;2023-02-18T11:54:28;13.30;99.90
7174;DHT22;3628;48.654;8.932;2023-02-18T11:56:59;13.40;99.90
7174;DHT22;3628;48.654;8.932;2023-02-18T11:59:26;13.40;99.90
7174;DHT22;3628;48.654;8.932;2023-02-18T12:02:02;13.50;99.90
7174;DHT22;3628;48.654;8.932;2023-02-18T12:04:49;13.50;99.90
7174;DHT22;3628;48.654;8.932;2023-02-18T12:07:30;13.60;99.90
7174;DHT22;3628;48.654;8.932;2023-02-18T12:10:03;13.70;99.90
7174;DHT22;3628;48.654;8.932;2023-02-18T12:12:38;13.90;99.90
7174;DHT22;3628;48.654;8.932;2023-02-18T12:15:11;13.90;99.90
7174;DHT22;3628;48.654;8.932;2023-02-18T12:20:46;13.80;99.90
7174;DHT22;3628;48.654;8.932;2023-02-18T12:26:17;13.70;99.90
7174;DHT22;3628;48.654;8.932;2023-02-18T12:31:57;13.50;99.90
7174;DHT22;3628;48.654;8.932;2023-02-18T12:45:42;13.90;99.90
7174;DHT22;3628;48.654;8.932;2023-02-18T12:48:25;13.90;99.90
7174;DHT22;3628;48.654;8.932;2023-02-18T12:53:58;13.90;99.90
7174;DHT22;3628;48.654;8.932;2023-02-18T12:56:44;13.90;99.90
7174;DHT22;3628;48.654;8.932;2023-02-18T13:11:45;13.90;99.90
7174;DHT22;3628;48.654;8.932;2023-02-18T13:16:43;14.00;99.90
7174;DHT22;3628;48.654;8.932;2023-02-18T13:19:21;14.00;99.90
7174;DHT22;3628;48.654;8.932;2023-02-18T13:21:50;14.20;99.90
7174;DHT22;3628;48.654;8.932;2023-02-18T13:27:04;14.30;99.90
7174;DHT22;3628;48.654;8.932;2023-02-18T13:29:40;14.20;99.90
7174;DHT22;3628;48.654;8.932;2023-02-18T13:32:38;14.20;99.90
7174;DHT22;3628;48.654;8.932;2023-02-18T13:38:25;14.50;99.90
7174;DHT22;3628;48.654;8.932;2023-02-18T13:40:52;14.50;99.90
7174;DHT22;3628;48.654;8.932;2023-02-18T13:43:30;14.40;99.90
7174;DHT22;3628;48.654;8.932;2023-02-18T13:46:11;14.20;99.90
7174;DHT22;3628;48.654;8.932;2023-02-18T13:48:49;14.10;99.90
7174;DHT22;3628;48.654;8.932;2023-02-18T13:51:30;14.00;99.90
7174;DHT22;3628;48.654;8.932;2023-02-18T13:54:03;14.00;99.90
7174;DHT22;3628;48.654;8.932;2023-02-18T13:56:33;14.00;99.90
7174;DHT22;3628;48.654;8.932;2023-02-18T13:59:18;14.00;99.90
7174;DHT22;3628;48.654;8.932;2023-02-18T14:01:46;13.90;99.90
7174;DHT22;3628;48.654;8.932;2023-02-18T14:09:43;14.10;99.90
7174;DHT22;3628;48.654;8.932;2023-02-18T14:14:41;14.00;99.90
7174;DHT22;3628;48.654;8.932;2023-02-18T14:22:31;14.00;99.90
7174;DHT22;3628;48.654;8.932;2023-02-18T14:27:38;14.20;99.90
7174;DHT22;3628;48.654;8.932;2023-02-18T14:32:43;14.10;99.90
7174;DHT22;3628;48.654;8.932;2023-02-18T14:43:38;13.80;99.90
7174;DHT22;3628;48.654;8.932;2023-02-18T14:51:33;13.70;99.90
7174;DHT22;3628;48.654;8.932;2023-02-18T14:54:09;13.80;99.90
7174;DHT22;3628;48.654;8.932;2023-02-18T14:56:40;13.80;99.90
7174;DHT22;3628;48.654;8.932;2023-02-18T14:59:07;13.70;99.90
7174;DHT22;3628;48.654;8.932;2023-02-18T15:01:35;13.70;99.90
7174;DHT22;3628;48.654;8.932;2023-02-18T15:04:03;13.60;99.90
7174;DHT22;3628;48.654;8.932;2023-02-18T15:06:36;13.60;99.90
7174;DHT22;3628;48.654;8.932;2023-02-18T15:09:18;13.50;99.90
7174;DHT22;3628;48.654;8.932;2023-02-18T15:11:51;13.40;99.90
7174;DHT22;3628;48.654;8.932;2023-02-18T15:14:22;13.40;99.90
7174;DHT22;3628;48.654;8.932;2023-02-18T15:16:50;13.50;99.90
7174;DHT22;3628;48.654;8.932;2023-02-18T15:19:18;13.50;99.90
7174;DHT22;3628;48.654;8.932;2023-02-18T15:21:47;13.50;99.90
7174;DHT22;3628;48.654;8.932;2023-02-18T15:24:30;13.40;99.90
7174;DHT22;3628;48.654;8.932;2023-02-18T15:27:01;13.50;99.90
7174;DHT22;3628;48.654;8.932;2023-02-18T15:29:32;13.50;99.90
7174;DHT22;3628;48.654;8.932;2023-02-18T15:31:58;13.50;99.90
7174;DHT22;3628;48.654;8.932;2023-02-18T15:36:54;13.30;99.90
7174;DHT22;3628;48.654;8.932;2023-02-18T15:39:20;13.30;99.90
7174;DHT22;3628;48.654;8.932;2023-02-18T15:41:46;13.20;99.90
7174;DHT22;3628;48.654;8.932;2023-02-18T15:44:23;13.20;99.90
7174;DHT22;3628;48.654;8.932;2023-02-18T15:46:50;13.10;99.90
7174;DHT22;3628;48.654;8.932;2023-02-18T15:49:18;13.10;99.90
7174;DHT22;3628;48.654;8.932;2023-02-18T15:51:45;13.00;99.90
7174;DHT22;3628;48.654;8.932;2023-02-18T15:54:14;13.00;99.90
7174;DHT22;3628;48.654;8.932;2023-02-18T15:56:43;13.00;99.90
7174;DHT22;3628;48.654;8.932;2023-02-18T15:59:20;13.00;99.90
7174;DHT22;3628;48.654;8.932;2023-02-18T16:01:54;13.00;99.90
7174;DHT22;3628;48.654;8.932;2023-02-18T16:04:21;13.00;99.90
7174;DHT22;3628;48.654;8.932;2023-02-18T16:06:52;13.00;99.90
7174;DHT22;3628;48.654;8.932;2023-02-18T16:09:26;13.00;99.90
7174;DHT22;3628;48.654;8.932;2023-02-18T16:11:56;12.90;99.90
7174;DHT22;3628;48.654;8.932;2023-02-18T16:20:01;12.70;99.90
7174;DHT22;3628;48.654;8.932;2023-02-18T16:25:01;12.60;99.90
7174;DHT22;3628;48.654;8.932;2023-02-18T16:27:33;12.60;99.90
7174;DHT22;3628;48.654;8.932;2023-02-18T16:30:05;12.60;99.90
7174;DHT22;3628;48.654;8.932;2023-02-18T16:32:31;12.50;99.90
7174;DHT22;3628;48.654;8.932;2023-02-18T16:34:57;12.50;99.90
7174;DHT22;3628;48.654;8.932;2023-02-18T16:37:22;12.50;99.90
7174;DHT22;3628;48.654;8.932;2023-02-18T16:40:50;12.40;99.90
7174;DHT22;3628;48.654;8.932;2023-02-18T16:42:51;12.40;99.90
7174;DHT22;3628;48.654;8.932;2023-02-18T16:45:17;12.30;99.90
7174;DHT22;3628;48.654;8.932;2023-02-18T16:47:49;12.30;99.90
7174;DHT22;3628;48.654;8.932;2023-02-18T16:50:19;12.30;99.90
7174;DHT22;3628;48.654;8.932;2023-02-18T16:52:47;12.30;99.90
7174;DHT22;3628;48.654;8.932;2023-02-18T16:55:21;12.20;99.90
7174;DHT22;3628;48.654;8.932;2023-02-18T16:57:47;12.20;99.90
7174;DHT22;3628;48.654;8.932;2023-02-18T17:00:14;12.20;99.90
7174;DHT22;3628;48.654;8.932;2023-02-18T17:02:42;12.20;99.90
7174;DHT22;3628;48.654;8.932;2023-02-18T17:05:07;12.10;99.90
7174;DHT22;3628;48.654;8.932;2023-02-18T17:07:33;12.10;99.90
7174;DHT22;3628;48.654;8.932;2023-02-18T17:10:01;12.00;99.90
7174;DHT22;3628;48.654;8.932;2023-02-18T17:12:26;12.00;99.90
7174;DHT22;3628;48.654;8.932;2023-02-18T17:14:52;12.00;99.90
7174;DHT22;3628;48.654;8.932;2023-02-18T17:17:17;12.00;99.90
7174;DHT22;3628;48.654;8.932;2023-02-18T17:19:47;11.90;99.90
7174;DHT22;3628;48.654;8.932;2023-02-18T17:22:13;11.90;99.90
7174;DHT22;3628;48.654;8.932;2023-02-18T17:24:39;11.90;99.90
7174;DHT22;3628;48.654;8.932;2023-02-18T17:27:04;11.90;99.90
7174;DHT22;3628;48.654;8.932;2023-02-18T17:29:30;11.90;99.90
7174;DHT22;3628;48.654;8.932;2023-02-18T17:31:55;11.90;99.90
7174;DHT22;3628;48.654;8.932;2023-02-18T17:34:26;11.90;99.90
7174;DHT22;3628;48.654;8.932;2023-02-18T17:36:53;11.90;99.90
7174;DHT22;3628;48.654;8.932;2023-02-18T17:39:19;11.90;99.90
7174;DHT22;3628;48.654;8.932;2023-02-18T17:41:45;11.90;99.90
7174;DHT22;3628;48.654;8.932;2023-02-18T17:44:22;11.90;99.90
7174;DHT22;3628;48.654;8.932;2023-02-18T17:46:49;11.90;99.90
7174;DHT22;3628;48.654;8.932;2023-02-18T17:49:15;11.90;99.90
7174;DHT22;3628;48.654;8.932;2023-02-18T17:51:41;11.90;99.90
7174;DHT22;3628;48.654;8.932;2023-02-18T17:54:18;11.90;99.90
7174;DHT22;3628;48.654;8.932;2023-02-18T17:56:44;11.90;99.90
7174;DHT22;3628;48.654;8.932;2023-02-18T17:59:11;11.90;99.90
7174;DHT22;3628;48.654;8.932;2023-02-18T18:01:36;12.00;99.90
7174;DHT22;3628;48.654;8.932;2023-02-18T18:04:02;12.00;99.90
7174;DHT22;3628;48.654;8.932;2023-02-18T18:06:28;12.00;99.90
7174;DHT22;3628;48.654;8.932;2023-02-18T18:08:54;12.00;99.90
7174;DHT22;3628;48.654;8.932;2023-02-18T18:11:22;12.00;99.90
7174;DHT22;3628;48.654;8.932;2023-02-18T18:13:48;12.00;99.90
7174;DHT22;3628;48.654;8.932;2023-02-18T18:16:15;12.00;99.90
7174;DHT22;3628;48.654;8.932;2023-02-18T18:18:41;12.00;99.90
7174;DHT22;3628;48.654;8.932;2023-02-18T18:21:29;12.00;99.90
7174;DHT22;3628;48.654;8.932;2023-02-18T18:23:55;12.00;99.90
7174;DHT22;3628;48.654;8.932;2023-02-18T18:26:20;12.00;99.90
7174;DHT22;3628;48.654;8.932;2023-02-18T18:28:46;12.00;99.90